Terminal Aerodrome Forecast
Issued by NWS

Home | Current Version | Previous Version | Text Only | Print | Product List | Glossary On
Versions: 1 2 3 4 5 6 7 8 9 10 11 12 13 14
000
FTPA31 PHFO 310000 AAA
TAFLIH
TAF AMD
PHLI 310059Z 3101/3124 05020G30KT P6SM VCSH SCT023 BKN040
      TEMPO 3101/3103 2SM +SHRA BR BKN025 BKN040
     FM310300 06017KT P6SM VCSH SCT018 BKN035
     FM312000 06019KT P6SM SCT018 SCT035=

USA.gov is the U.S. government's official web portal to all federal, state and local government web resources and services.